sensor_id;sensor_type;location;lat;lon;timestamp;noise_LAeq;noise_LA_min;noise_LA_max;noise_LA01;noise_LA95
66449;Laerm;56828;52.294;4.666;2023-02-28T00:00:09;40.48;38.08;43.36;;
66449;Laerm;56828;52.294;4.666;2023-02-28T00:00:23;47.66;38.82;53.27;;
66449;Laerm;56828;52.294;4.666;2023-02-28T00:00:34;42.97;34.65;51.25;;
66449;Laerm;56828;52.294;4.666;2023-02-28T00:00:44;35.56;33.17;38.08;;
66449;Laerm;56828;52.294;4.666;2023-02-28T00:00:55;35.96;34.30;37.58;;
66449;Laerm;56828;52.294;4.666;2023-02-28T00:01:05;35.30;33.69;37.28;;
66449;Laerm;56828;52.294;4.666;2023-02-28T00:01:15;34.85;32.34;37.39;;
66449;Laerm;56828;52.294;4.666;2023-02-28T00:01:26;35.14;32.65;36.54;;
66449;Laerm;56828;52.294;4.666;2023-02-28T00:01:36;35.55;32.77;38.54;;
66449;Laerm;56828;52.294;4.666;2023-02-28T00:01:47;37.34;33.87;41.48;;
66449;Laerm;56828;52.294;4.666;2023-02-28T00:01:57;36.15;33.83;38.33;;
66449;Laerm;56828;52.294;4.666;2023-02-28T00:02:07;35.15;33.29;38.05;;
66449;Laerm;56828;52.294;4.666;2023-02-28T00:02:18;38.78;35.12;43.11;;
66449;Laerm;56828;52.294;4.666;2023-02-28T00:02:28;43.44;40.22;46.21;;
66449;Laerm;56828;52.294;4.666;2023-02-28T00:02:39;45.31;41.70;50.03;;
66449;Laerm;56828;52.294;4.666;2023-02-28T00:02:50;43.46;37.65;49.96;;
66449;Laerm;56828;52.294;4.666;2023-02-28T00:03:00;37.97;34.08;42.12;;
66449;Laerm;56828;52.294;4.666;2023-02-28T00:03:10;36.20;33.40;38.28;;
66449;Laerm;56828;52.294;4.666;2023-02-28T00:03:21;36.82;33.34;40.38;;
66449;Laerm;56828;52.294;4.666;2023-02-28T00:03:31;37.34;34.12;40.90;;
66449;Laerm;56828;52.294;4.666;2023-02-28T00:03:45;37.57;33.70;42.74;;
66449;Laerm;56828;52.294;4.666;2023-02-28T00:03:55;37.11;34.89;40.67;;
66449;Laerm;56828;52.294;4.666;2023-02-28T00:04:06;39.90;36.31;43.15;;
66449;Laerm;56828;52.294;4.666;2023-02-28T00:04:19;37.15;33.90;40.92;;
66449;Laerm;56828;52.294;4.666;2023-02-28T00:04:29;35.19;33.41;36.70;;
66449;Laerm;56828;52.294;4.666;2023-02-28T00:04:39;35.33;32.73;37.52;;
66449;Laerm;56828;52.294;4.666;2023-02-28T00:04:50;35.24;33.30;37.10;;
66449;Laerm;56828;52.294;4.666;2023-02-28T00:05:03;36.64;34.12;42.10;;
66449;Laerm;56828;52.294;4.666;2023-02-28T00:05:14;38.29;34.68;42.85;;
66449;Laerm;56828;52.294;4.666;2023-02-28T00:05:25;40.31;36.59;43.88;;
66449;Laerm;56828;52.294;4.666;2023-02-28T00:05:36;40.28;36.00;43.97;;
66449;Laerm;56828;52.294;4.666;2023-02-28T00:05:46;39.47;35.51;42.94;;
66449;Laerm;56828;52.294;4.666;2023-02-28T00:05:56;36.25;33.34;39.10;;
66449;Laerm;56828;52.294;4.666;2023-02-28T00:06:07;34.63;32.52;36.25;;
66449;Laerm;56828;52.294;4.666;2023-02-28T00:06:19;34.90;32.99;37.04;;
66449;Laerm;56828;52.294;4.666;2023-02-28T00:06:30;35.61;33.75;37.66;;
66449;Laerm;56828;52.294;4.666;2023-02-28T00:06:41;35.43;33.02;37.21;;
66449;Laerm;56828;52.294;4.666;2023-02-28T00:06:52;35.38;33.52;38.02;;
66449;Laerm;56828;52.294;4.666;2023-02-28T00:07:02;35.18;32.96;37.41;;
66449;Laerm;56828;52.294;4.666;2023-02-28T00:07:12;35.53;33.62;37.32;;
66449;Laerm;56828;52.294;4.666;2023-02-28T00:07:22;34.77;32.76;37.24;;
66449;Laerm;56828;52.294;4.666;2023-02-28T00:07:33;34.94;33.17;36.66;;
66449;Laerm;56828;52.294;4.666;2023-02-28T00:07:43;35.05;32.80;37.24;;
66449;Laerm;56828;52.294;4.666;2023-02-28T00:07:54;34.27;32.21;35.87;;
66449;Laerm;56828;52.294;4.666;2023-02-28T00:08:04;34.28;32.47;36.85;;
66449;Laerm;56828;52.294;4.666;2023-02-28T00:08:15;34.70;32.36;37.76;;
66449;Laerm;56828;52.294;4.666;2023-02-28T00:08:25;35.11;33.01;37.57;;
66449;Laerm;56828;52.294;4.666;2023-02-28T00:08:37;35.07;32.60;37.68;;
66449;Laerm;56828;52.294;4.666;2023-02-28T00:08:47;34.52;32.70;36.39;;
66449;Laerm;56828;52.294;4.666;2023-02-28T00:08:58;34.28;32.35;35.99;;
66449;Laerm;56828;52.294;4.666;2023-02-28T00:09:08;34.14;31.56;37.60;;
66449;Laerm;56828;52.294;4.666;2023-02-28T00:09:18;34.97;32.88;37.61;;
66449;Laerm;56828;52.294;4.666;2023-02-28T00:09:29;36.31;33.62;39.48;;
66449;Laerm;56828;52.294;4.666;2023-02-28T00:09:39;35.33;32.95;37.50;;
66449;Laerm;56828;52.294;4.666;2023-02-28T00:09:49;35.44;33.04;37.88;;
66449;Laerm;56828;52.294;4.666;2023-02-28T00:09:59;35.83;33.64;38.04;;
66449;Laerm;56828;52.294;4.666;2023-02-28T00:10:11;37.79;34.63;41.03;;
66449;Laerm;56828;52.294;4.666;2023-02-28T00:10:23;37.62;34.58;43.07;;
66449;Laerm;56828;52.294;4.666;2023-02-28T00:10:33;36.60;33.16;41.69;;
66449;Laerm;56828;52.294;4.666;2023-02-28T00:10:43;36.16;32.87;39.75;;
66449;Laerm;56828;52.294;4.666;2023-02-28T00:10:54;35.69;32.87;38.11;;
66449;Laerm;56828;52.294;4.666;2023-02-28T00:11:05;34.87;33.27;36.52;;
66449;Laerm;56828;52.294;4.666;2023-02-28T00:11:16;34.72;32.80;36.33;;
66449;Laerm;56828;52.294;4.666;2023-02-28T00:11:26;34.88;32.81;36.40;;
66449;Laerm;56828;52.294;4.666;2023-02-28T00:11:37;35.06;33.37;36.89;;
66449;Laerm;56828;52.294;4.666;2023-02-28T00:11:47;34.71;32.83;37.14;;
66449;Laerm;56828;52.294;4.666;2023-02-28T00:11:58;35.10;33.12;37.22;;
66449;Laerm;56828;52.294;4.666;2023-02-28T00:12:08;35.14;32.98;37.88;;
66449;Laerm;56828;52.294;4.666;2023-02-28T00:12:20;34.61;32.48;36.65;;
66449;Laerm;56828;52.294;4.666;2023-02-28T00:12:30;34.44;32.55;36.48;;
66449;Laerm;56828;52.294;4.666;2023-02-28T00:12:41;35.52;33.72;37.78;;
66449;Laerm;56828;52.294;4.666;2023-02-28T00:12:51;36.51;33.31;40.57;;
66449;Laerm;56828;52.294;4.666;2023-02-28T00:13:04;35.07;32.79;37.39;;
66449;Laerm;56828;52.294;4.666;2023-02-28T00:13:14;34.87;32.92;37.13;;
66449;Laerm;56828;52.294;4.666;2023-02-28T00:13:25;36.05;33.93;38.10;;
66449;Laerm;56828;52.294;4.666;2023-02-28T00:13:35;37.47;34.83;39.39;;
66449;Laerm;56828;52.294;4.666;2023-02-28T00:13:47;34.95;32.63;37.66;;
66449;Laerm;56828;52.294;4.666;2023-02-28T00:13:58;34.48;32.11;36.88;;
66449;Laerm;56828;52.294;4.666;2023-02-28T00:14:08;34.68;32.79;36.47;;
66449;Laerm;56828;52.294;4.666;2023-02-28T00:14:18;34.13;32.40;36.39;;
66449;Laerm;56828;52.294;4.666;2023-02-28T00:14:30;34.70;32.70;36.78;;
66449;Laerm;56828;52.294;4.666;2023-02-28T00:14:40;34.11;31.80;35.87;;
66449;Laerm;56828;52.294;4.666;2023-02-28T00:14:50;33.72;32.01;35.59;;
66449;Laerm;56828;52.294;4.666;2023-02-28T00:15:02;33.72;31.81;36.20;;
66449;Laerm;56828;52.294;4.666;2023-02-28T00:15:13;34.22;32.46;36.67;;
66449;Laerm;56828;52.294;4.666;2023-02-28T00:15:23;33.97;32.19;36.00;;
66449;Laerm;56828;52.294;4.666;2023-02-28T00:15:34;33.78;31.84;35.55;;
66449;Laerm;56828;52.294;4.666;2023-02-28T00:15:45;34.20;32.19;36.32;;
66449;Laerm;56828;52.294;4.666;2023-02-28T00:15:59;35.97;32.79;40.75;;
66449;Laerm;56828;52.294;4.666;2023-02-28T00:16:12;37.41;34.11;42.08;;
66449;Laerm;56828;52.294;4.666;2023-02-28T00:16:23;38.92;34.48;42.13;;
66449;Laerm;56828;52.294;4.666;2023-02-28T00:16:33;39.42;34.42;43.17;;
66449;Laerm;56828;52.294;4.666;2023-02-28T00:16:44;36.17;33.41;38.04;;
66449;Laerm;56828;52.294;4.666;2023-02-28T00:16:54;35.28;33.35;37.48;;
66449;Laerm;56828;52.294;4.666;2023-02-28T00:17:05;34.97;32.98;37.54;;
66449;Laerm;56828;52.294;4.666;2023-02-28T00:17:15;34.32;32.57;35.88;;
66449;Laerm;56828;52.294;4.666;2023-02-28T00:17:30;34.43;31.77;37.37;;
66449;Laerm;56828;52.294;4.666;2023-02-28T00:17:41;36.57;32.49;41.39;;
66449;Laerm;56828;52.294;4.666;2023-02-28T00:17:52;34.89;32.46;36.77;;
66449;Laerm;56828;52.294;4.666;2023-02-28T00:18:02;34.27;31.92;36.52;;
66449;Laerm;56828;52.294;4.666;2023-02-28T00:18:13;33.75;31.65;35.62;;
66449;Laerm;56828;52.294;4.666;2023-02-28T00:18:23;34.08;31.84;36.03;;
66449;Laerm;56828;52.294;4.666;2023-02-28T00:18:33;34.22;32.01;35.94;;
66449;Laerm;56828;52.294;4.666;2023-02-28T00:18:44;34.41;32.43;36.97;;
66449;Laerm;56828;52.294;4.666;2023-02-28T00:18:54;34.49;32.43;36.46;;
66449;Laerm;56828;52.294;4.666;2023-02-28T00:19:04;34.33;32.26;36.47;;
66449;Laerm;56828;52.294;4.666;2023-02-28T00:19:15;34.98;32.49;37.90;;
66449;Laerm;56828;52.294;4.666;2023-02-28T00:19:25;35.14;32.90;37.26;;
66449;Laerm;56828;52.294;4.666;2023-02-28T00:19:35;34.16;32.14;36.12;;
66449;Laerm;56828;52.294;4.666;2023-02-28T00:19:48;34.33;32.04;35.90;;
66449;Laerm;56828;52.294;4.666;2023-02-28T00:19:58;34.84;32.40;38.73;;
66449;Laerm;56828;52.294;4.666;2023-02-28T00:20:12;35.41;33.29;39.32;;
66449;Laerm;56828;52.294;4.666;2023-02-28T00:20:23;35.11;32.77;39.25;;
66449;Laerm;56828;52.294;4.666;2023-02-28T00:20:33;34.47;32.20;36.82;;
66449;Laerm;56828;52.294;4.666;2023-02-28T00:20:43;34.53;32.90;37.36;;
66449;Laerm;56828;52.294;4.666;2023-02-28T00:20:54;34.46;32.19;36.49;;
66449;Laerm;56828;52.294;4.666;2023-02-28T00:21:04;34.38;32.34;36.19;;
66449;Laerm;56828;52.294;4.666;2023-02-28T00:21:15;34.95;33.28;36.60;;
66449;Laerm;56828;52.294;4.666;2023-02-28T00:21:25;34.83;32.81;37.22;;
66449;Laerm;56828;52.294;4.666;2023-02-28T00:21:36;34.82;32.93;37.35;;
66449;Laerm;56828;52.294;4.666;2023-02-28T00:21:46;34.28;32.32;36.23;;
66449;Laerm;56828;52.294;4.666;2023-02-28T00:21:57;34.55;32.81;36.30;;
66449;Laerm;56828;52.294;4.666;2023-02-28T00:22:07;35.06;32.55;36.89;;
66449;Laerm;56828;52.294;4.666;2023-02-28T00:22:18;39.34;33.89;46.33;;
66449;Laerm;56828;52.294;4.666;2023-02-28T00:22:28;40.95;35.60;46.52;;
66449;Laerm;56828;52.294;4.666;2023-02-28T00:22:39;42.58;37.33;47.61;;
66449;Laerm;56828;52.294;4.666;2023-02-28T00:22:51;47.37;42.13;50.72;;
66449;Laerm;56828;52.294;4.666;2023-02-28T00:23:02;42.85;36.65;49.10;;
66449;Laerm;56828;52.294;4.666;2023-02-28T00:23:12;38.81;35.71;43.46;;
66449;Laerm;56828;52.294;4.666;2023-02-28T00:23:22;35.10;32.45;40.38;;
66449;Laerm;56828;52.294;4.666;2023-02-28T00:23:33;34.16;32.55;36.15;;
66449;Laerm;56828;52.294;4.666;2023-02-28T00:23:43;35.00;32.41;41.00;;
66449;Laerm;56828;52.294;4.666;2023-02-28T00:23:53;33.88;32.27;35.91;;
66449;Laerm;56828;52.294;4.666;2023-02-28T00:24:04;33.84;31.42;36.53;;
66449;Laerm;56828;52.294;4.666;2023-02-28T00:24:14;38.12;34.43;45.04;;
66449;Laerm;56828;52.294;4.666;2023-02-28T00:24:24;34.97;31.23;40.87;;
66449;Laerm;56828;52.294;4.666;2023-02-28T00:24:35;33.51;31.60;35.39;;
66449;Laerm;56828;52.294;4.666;2023-02-28T00:24:45;36.20;32.17;40.79;;
66449;Laerm;56828;52.294;4.666;2023-02-28T00:24:55;37.38;32.65;41.85;;
66449;Laerm;56828;52.294;4.666;2023-02-28T00:25:06;35.00;32.48;38.29;;
66449;Laerm;56828;52.294;4.666;2023-02-28T00:25:18;35.47;33.29;37.46;;
66449;Laerm;56828;52.294;4.666;2023-02-28T00:25:28;33.90;32.26;35.99;;
66449;Laerm;56828;52.294;4.666;2023-02-28T00:25:39;33.90;31.71;35.94;;
66449;Laerm;56828;52.294;4.666;2023-02-28T00:25:49;33.30;31.65;35.88;;
66449;Laerm;56828;52.294;4.666;2023-02-28T00:26:00;33.10;31.40;34.64;;
66449;Laerm;56828;52.294;4.666;2023-02-28T00:26:11;33.15;31.40;34.79;;
66449;Laerm;56828;52.294;4.666;2023-02-28T00:26:21;33.32;31.76;35.51;;
66449;Laerm;56828;52.294;4.666;2023-02-28T00:26:31;33.00;31.41;34.43;;
66449;Laerm;56828;52.294;4.666;2023-02-28T00:26:42;33.15;30.98;35.37;;
66449;Laerm;56828;52.294;4.666;2023-02-28T00:26:52;33.42;31.64;34.93;;
66449;Laerm;56828;52.294;4.666;2023-02-28T00:27:02;33.12;31.33;34.95;;
66449;Laerm;56828;52.294;4.666;2023-02-28T00:27:13;33.40;31.68;35.48;;
66449;Laerm;56828;52.294;4.666;2023-02-28T00:27:24;33.47;31.54;35.23;;
66449;Laerm;56828;52.294;4.666;2023-02-28T00:27:35;32.71;31.09;34.27;;
66449;Laerm;56828;52.294;4.666;2023-02-28T00:27:46;33.08;30.68;34.81;;
66449;Laerm;56828;52.294;4.666;2023-02-28T00:27:56;32.95;31.32;34.93;;
66449;Laerm;56828;52.294;4.666;2023-02-28T00:28:06;33.02;31.10;38.34;;
66449;Laerm;56828;52.294;4.666;2023-02-28T00:28:17;32.98;31.11;34.63;;
66449;Laerm;56828;52.294;4.666;2023-02-28T00:28:27;32.76;31.18;35.04;;
66449;Laerm;56828;52.294;4.666;2023-02-28T00:28:37;32.60;30.94;34.00;;
66449;Laerm;56828;52.294;4.666;2023-02-28T00:28:48;32.57;30.61;34.55;;
66449;Laerm;56828;52.294;4.666;2023-02-28T00:28:58;33.64;31.15;36.68;;
66449;Laerm;56828;52.294;4.666;2023-02-28T00:29:09;34.60;31.81;42.37;;
66449;Laerm;56828;52.294;4.666;2023-02-28T00:29:19;37.02;32.56;42.87;;
66449;Laerm;56828;52.294;4.666;2023-02-28T00:29:29;37.87;33.59;44.76;;
66449;Laerm;56828;52.294;4.666;2023-02-28T00:29:40;38.08;33.21;43.90;;
66449;Laerm;56828;52.294;4.666;2023-02-28T00:29:50;39.66;35.54;47.10;;
66449;Laerm;56828;52.294;4.666;2023-02-28T00:30:00;37.73;34.15;41.51;;
66449;Laerm;56828;52.294;4.666;2023-02-28T00:30:12;35.84;32.75;38.98;;
66449;Laerm;56828;52.294;4.666;2023-02-28T00:30:23;35.73;32.90;41.31;;
66449;Laerm;56828;52.294;4.666;2023-02-28T00:30:33;34.64;32.76;37.88;;
66449;Laerm;56828;52.294;4.666;2023-02-28T00:30:44;35.35;33.04;38.27;;
66449;Laerm;56828;52.294;4.666;2023-02-28T00:30:54;34.58;32.55;36.48;;
66449;Laerm;56828;52.294;4.666;2023-02-28T00:31:04;33.66;31.55;36.32;;
66449;Laerm;56828;52.294;4.666;2023-02-28T00:31:15;33.20;31.09;35.15;;
66449;Laerm;56828;52.294;4.666;2023-02-28T00:31:25;33.35;31.37;35.27;;
66449;Laerm;56828;52.294;4.666;2023-02-28T00:31:36;33.64;31.76;36.03;;
66449;Laerm;56828;52.294;4.666;2023-02-28T00:31:46;33.50;31.16;36.42;;
66449;Laerm;56828;52.294;4.666;2023-02-28T00:31:56;33.65;31.71;35.69;;
66449;Laerm;56828;52.294;4.666;2023-02-28T00:32:06;32.51;30.74;34.73;;
66449;Laerm;56828;52.294;4.666;2023-02-28T00:32:17;33.83;31.47;38.92;;
66449;Laerm;56828;52.294;4.666;2023-02-28T00:32:28;33.39;31.21;38.12;;
66449;Laerm;56828;52.294;4.666;2023-02-28T00:32:39;33.74;32.05;36.00;;
66449;Laerm;56828;52.294;4.666;2023-02-28T00:32:50;33.13;31.38;34.63;;
66449;Laerm;56828;52.294;4.666;2023-02-28T00:33:00;32.94;31.35;34.61;;
66449;Laerm;56828;52.294;4.666;2023-02-28T00:33:11;32.77;31.02;35.13;;
66449;Laerm;56828;52.294;4.666;2023-02-28T00:33:21;32.40;30.63;34.24;;
66449;Laerm;56828;52.294;4.666;2023-02-28T00:33:31;33.18;31.43;35.26;;
66449;Laerm;56828;52.294;4.666;2023-02-28T00:33:42;33.25;31.55;35.17;;
66449;Laerm;56828;52.294;4.666;2023-02-28T00:33:52;32.96;31.12;36.95;;
66449;Laerm;56828;52.294;4.666;2023-02-28T00:34:02;32.82;30.80;35.46;;
66449;Laerm;56828;52.294;4.666;2023-02-28T00:34:13;34.51;31.77;40.09;;
66449;Laerm;56828;52.294;4.666;2023-02-28T00:34:23;33.36;31.46;35.75;;
66449;Laerm;56828;52.294;4.666;2023-02-28T00:34:33;34.00;32.17;36.43;;
66449;Laerm;56828;52.294;4.666;2023-02-28T00:34:47;33.70;31.57;37.12;;
66449;Laerm;56828;52.294;4.666;2023-02-28T00:34:57;35.35;32.49;38.79;;
66449;Laerm;56828;52.294;4.666;2023-02-28T00:35:08;33.87;32.36;37.10;;
66449;Laerm;56828;52.294;4.666;2023-02-28T00:35:19;34.06;32.13;36.78;;
66449;Laerm;56828;52.294;4.666;2023-02-28T00:35:29;33.67;31.92;36.68;;
66449;Laerm;56828;52.294;4.666;2023-02-28T00:35:40;34.40;31.80;37.72;;
66449;Laerm;56828;52.294;4.666;2023-02-28T00:35:50;32.67;31.17;36.11;;
66449;Laerm;56828;52.294;4.666;2023-02-28T00:36:04;32.86;30.99;35.52;;
66449;Laerm;56828;52.294;4.666;2023-02-28T00:36:15;32.51;30.63;34.45;;
66449;Laerm;56828;52.294;4.666;2023-02-28T00:36:25;32.66;30.77;34.76;;
66449;Laerm;56828;52.294;4.666;2023-02-28T00:36:35;32.48;30.84;33.93;;
66449;Laerm;56828;52.294;4.666;2023-02-28T00:36:46;32.88;30.98;34.61;;
66449;Laerm;56828;52.294;4.666;2023-02-28T00:36:58;33.07;31.03;38.27;;
66449;Laerm;56828;52.294;4.666;2023-02-28T00:37:09;32.86;31.32;34.34;;
66449;Laerm;56828;52.294;4.666;2023-02-28T00:37:20;34.18;31.54;36.87;;
66449;Laerm;56828;52.294;4.666;2023-02-28T00:37:30;32.76;30.96;35.53;;
66449;Laerm;56828;52.294;4.666;2023-02-28T00:37:41;33.79;31.77;36.69;;
66449;Laerm;56828;52.294;4.666;2023-02-28T00:37:51;34.47;32.01;40.03;;
66449;Laerm;56828;52.294;4.666;2023-02-28T00:38:02;34.17;31.53;36.06;;
66449;Laerm;56828;52.294;4.666;2023-02-28T00:38:13;35.44;32.63;38.73;;
66449;Laerm;56828;52.294;4.666;2023-02-28T00:38:23;42.08;34.60;57.67;;
66449;Laerm;56828;52.294;4.666;2023-02-28T00:38:33;46.04;38.67;53.57;;
66449;Laerm;56828;52.294;4.666;2023-02-28T00:38:44;46.53;39.90;52.77;;
66449;Laerm;56828;52.294;4.666;2023-02-28T00:38:54;45.67;35.86;53.40;;
66449;Laerm;56828;52.294;4.666;2023-02-28T00:39:04;39.11;35.89;43.31;;
66449;Laerm;56828;52.294;4.666;2023-02-28T00:39:15;39.74;36.04;47.43;;
66449;Laerm;56828;52.294;4.666;2023-02-28T00:39:25;37.64;33.76;42.51;;
66449;Laerm;56828;52.294;4.666;2023-02-28T00:39:36;38.47;34.05;50.09;;
66449;Laerm;56828;52.294;4.666;2023-02-28T00:39:47;43.44;34.18;56.82;;
66449;Laerm;56828;52.294;4.666;2023-02-28T00:39:57;40.49;33.03;49.66;;
66449;Laerm;56828;52.294;4.666;2023-02-28T00:40:08;36.07;32.54;42.49;;
66449;Laerm;56828;52.294;4.666;2023-02-28T00:40:19;34.52;32.64;36.50;;
66449;Laerm;56828;52.294;4.666;2023-02-28T00:40:29;35.04;32.33;38.66;;
66449;Laerm;56828;52.294;4.666;2023-02-28T00:40:40;35.10;32.80;37.71;;
66449;Laerm;56828;52.294;4.666;2023-02-28T00:40:50;34.98;32.90;37.79;;
66449;Laerm;56828;52.294;4.666;2023-02-28T00:41:01;34.61;32.86;36.23;;
66449;Laerm;56828;52.294;4.666;2023-02-28T00:41:14;33.96;31.74;36.76;;
66449;Laerm;56828;52.294;4.666;2023-02-28T00:41:24;33.90;32.27;35.34;;
66449;Laerm;56828;52.294;4.666;2023-02-28T00:41:35;34.58;32.31;38.40;;
66449;Laerm;56828;52.294;4.666;2023-02-28T00:41:45;33.46;31.34;36.45;;
66449;Laerm;56828;52.294;4.666;2023-02-28T00:41:55;33.59;31.59;35.17;;
66449;Laerm;56828;52.294;4.666;2023-02-28T00:42:06;33.27;31.88;34.89;;
66449;Laerm;56828;52.294;4.666;2023-02-28T00:42:16;33.64;31.45;35.50;;
66449;Laerm;56828;52.294;4.666;2023-02-28T00:42:27;33.55;31.47;35.28;;
66449;Laerm;56828;52.294;4.666;2023-02-28T00:42:37;33.47;32.04;35.09;;
66449;Laerm;56828;52.294;4.666;2023-02-28T00:42:48;33.73;32.05;35.40;;
66449;Laerm;56828;52.294;4.666;2023-02-28T00:42:58;35.14;32.65;38.73;;
66449;Laerm;56828;52.294;4.666;2023-02-28T00:43:08;34.82;32.76;36.67;;
66449;Laerm;56828;52.294;4.666;2023-02-28T00:43:19;36.24;33.26;37.96;;
66449;Laerm;56828;52.294;4.666;2023-02-28T00:43:30;38.37;34.60;41.83;;
66449;Laerm;56828;52.294;4.666;2023-02-28T00:43:40;39.19;35.28;42.43;;
66449;Laerm;56828;52.294;4.666;2023-02-28T00:43:50;36.15;32.08;42.31;;
66449;Laerm;56828;52.294;4.666;2023-02-28T00:44:01;34.72;33.01;36.79;;
66449;Laerm;56828;52.294;4.666;2023-02-28T00:44:11;34.51;32.59;36.71;;
66449;Laerm;56828;52.294;4.666;2023-02-28T00:44:21;34.05;31.98;35.66;;
66449;Laerm;56828;52.294;4.666;2023-02-28T00:44:32;34.45;32.76;35.80;;
66449;Laerm;56828;52.294;4.666;2023-02-28T00:44:42;35.82;33.61;39.20;;
66449;Laerm;56828;52.294;4.666;2023-02-28T00:44:52;35.43;33.35;37.96;;
66449;Laerm;56828;52.294;4.666;2023-02-28T00:45:03;34.92;32.68;37.78;;
66449;Laerm;56828;52.294;4.666;2023-02-28T00:45:14;35.08;33.23;36.92;;
66449;Laerm;56828;52.294;4.666;2023-02-28T00:45:25;35.44;33.64;37.13;;
66449;Laerm;56828;52.294;4.666;2023-02-28T00:45:35;36.63;34.21;39.23;;
66449;Laerm;56828;52.294;4.666;2023-02-28T00:45:45;36.27;33.56;38.45;;
66449;Laerm;56828;52.294;4.666;2023-02-28T00:45:56;36.11;33.12;38.52;;
66449;Laerm;56828;52.294;4.666;2023-02-28T00:46:06;35.82;33.92;37.70;;
66449;Laerm;56828;52.294;4.666;2023-02-28T00:46:16;36.61;33.70;39.44;;
66449;Laerm;56828;52.294;4.666;2023-02-28T00:46:27;35.58;33.54;37.38;;
66449;Laerm;56828;52.294;4.666;2023-02-28T00:46:37;34.22;32.73;36.18;;
66449;Laerm;56828;52.294;4.666;2023-02-28T00:46:48;34.24;32.23;36.62;;
66449;Laerm;56828;52.294;4.666;2023-02-28T00:46:58;34.70;32.41;36.96;;
66449;Laerm;56828;52.294;4.666;2023-02-28T00:47:09;34.47;32.34;36.67;;
66449;Laerm;56828;52.294;4.666;2023-02-28T00:47:20;34.74;32.78;37.13;;
66449;Laerm;56828;52.294;4.666;2023-02-28T00:47:30;35.41;32.73;37.95;;
66449;Laerm;56828;52.294;4.666;2023-02-28T00:47:41;35.81;32.77;38.63;;
66449;Laerm;56828;52.294;4.666;2023-02-28T00:47:51;34.22;32.07;36.84;;
66449;Laerm;56828;52.294;4.666;2023-02-28T00:48:01;33.91;32.27;37.59;;
66449;Laerm;56828;52.294;4.666;2023-02-28T00:48:12;34.13;32.40;37.02;;
66449;Laerm;56828;52.294;4.666;2023-02-28T00:48:22;34.81;32.15;39.43;;
66449;Laerm;56828;52.294;4.666;2023-02-28T00:48:33;34.17;32.51;36.07;;
66449;Laerm;56828;52.294;4.666;2023-02-28T00:48:43;36.35;32.77;42.17;;
66449;Laerm;56828;52.294;4.666;2023-02-28T00:48:53;34.00;32.37;36.19;;
66449;Laerm;56828;52.294;4.666;2023-02-28T00:49:04;33.78;31.92;40.35;;
66449;Laerm;56828;52.294;4.666;2023-02-28T00:49:14;34.67;31.98;38.95;;
66449;Laerm;56828;52.294;4.666;2023-02-28T00:49:24;35.64;32.49;39.77;;
66449;Laerm;56828;52.294;4.666;2023-02-28T00:49:38;35.60;32.44;38.14;;
66449;Laerm;56828;52.294;4.666;2023-02-28T00:49:48;35.87;33.14;38.35;;
66449;Laerm;56828;52.294;4.666;2023-02-28T00:49:58;35.79;32.72;37.72;;
66449;Laerm;56828;52.294;4.666;2023-02-28T00:50:09;36.29;33.33;39.58;;
66449;Laerm;56828;52.294;4.666;2023-02-28T00:50:19;34.53;32.61;36.51;;
66449;Laerm;56828;52.294;4.666;2023-02-28T00:50:30;35.38;33.15;38.35;;
66449;Laerm;56828;52.294;4.666;2023-02-28T00:50:40;34.95;32.81;37.89;;
66449;Laerm;56828;52.294;4.666;2023-02-28T00:50:51;34.55;32.64;36.61;;
66449;Laerm;56828;52.294;4.666;2023-02-28T00:51:01;34.67;32.24;36.80;;
66449;Laerm;56828;52.294;4.666;2023-02-28T00:51:11;34.31;32.41;36.88;;
66449;Laerm;56828;52.294;4.666;2023-02-28T00:51:22;34.51;32.69;37.49;;
66449;Laerm;56828;52.294;4.666;2023-02-28T00:51:32;34.79;32.38;38.02;;
66449;Laerm;56828;52.294;4.666;2023-02-28T00:51:42;35.00;32.88;37.56;;
66449;Laerm;56828;52.294;4.666;2023-02-28T00:51:53;35.25;33.38;37.42;;
66449;Laerm;56828;52.294;4.666;2023-02-28T00:52:04;33.85;32.03;36.80;;
66449;Laerm;56828;52.294;4.666;2023-02-28T00:52:14;33.73;31.46;42.95;;
66449;Laerm;56828;52.294;4.666;2023-02-28T00:52:24;34.36;31.66;37.15;;
66449;Laerm;56828;52.294;4.666;2023-02-28T00:52:35;33.10;31.32;34.85;;
66449;Laerm;56828;52.294;4.666;2023-02-28T00:52:45;33.01;31.08;34.83;;
66449;Laerm;56828;52.294;4.666;2023-02-28T00:52:56;33.03;31.14;34.43;;
66449;Laerm;56828;52.294;4.666;2023-02-28T00:53:06;32.96;30.89;36.19;;
66449;Laerm;56828;52.294;4.666;2023-02-28T00:53:16;33.11;31.57;34.76;;
66449;Laerm;56828;52.294;4.666;2023-02-28T00:53:27;35.19;32.63;38.65;;
66449;Laerm;56828;52.294;4.666;2023-02-28T00:53:37;39.64;37.13;43.36;;
66449;Laerm;56828;52.294;4.666;2023-02-28T00:53:47;43.58;38.23;48.67;;
66449;Laerm;56828;52.294;4.666;2023-02-28T00:53:57;38.47;33.33;41.27;;
66449;Laerm;56828;52.294;4.666;2023-02-28T00:54:08;34.18;31.80;36.45;;
66449;Laerm;56828;52.294;4.666;2023-02-28T00:54:18;33.13;31.21;35.88;;
66449;Laerm;56828;52.294;4.666;2023-02-28T00:54:29;32.47;30.90;34.20;;
66449;Laerm;56828;52.294;4.666;2023-02-28T00:54:39;32.55;31.06;34.10;;
66449;Laerm;56828;52.294;4.666;2023-02-28T00:54:49;32.70;30.65;34.33;;
66449;Laerm;56828;52.294;4.666;2023-02-28T00:55:00;33.45;31.37;35.32;;
66449;Laerm;56828;52.294;4.666;2023-02-28T00:55:10;35.89;32.09;39.14;;
66449;Laerm;56828;52.294;4.666;2023-02-28T00:55:20;40.87;35.63;45.54;;
66449;Laerm;56828;52.294;4.666;2023-02-28T00:55:31;36.96;31.38;43.43;;
66449;Laerm;56828;52.294;4.666;2023-02-28T00:55:41;33.41;31.01;35.62;;
66449;Laerm;56828;52.294;4.666;2023-02-28T00:55:51;33.01;31.40;35.00;;
66449;Laerm;56828;52.294;4.666;2023-02-28T00:56:02;33.08;31.02;37.34;;
66449;Laerm;56828;52.294;4.666;2023-02-28T00:56:12;34.26;31.56;37.86;;
66449;Laerm;56828;52.294;4.666;2023-02-28T00:56:23;36.10;33.98;38.30;;
66449;Laerm;56828;52.294;4.666;2023-02-28T00:56:33;34.64;32.18;37.16;;
66449;Laerm;56828;52.294;4.666;2023-02-28T00:56:44;34.64;32.71;37.03;;
66449;Laerm;56828;52.294;4.666;2023-02-28T00:56:55;34.42;32.85;36.25;;
66449;Laerm;56828;52.294;4.666;2023-02-28T00:57:06;36.40;32.27;42.63;;
66449;Laerm;56828;52.294;4.666;2023-02-28T00:57:16;41.24;37.43;47.53;;
66449;Laerm;56828;52.294;4.666;2023-02-28T00:57:26;37.04;34.12;41.12;;
66449;Laerm;56828;52.294;4.666;2023-02-28T00:57:37;39.57;34.90;42.36;;
66449;Laerm;56828;52.294;4.666;2023-02-28T00:57:47;41.94;34.60;59.78;;
66449;Laerm;56828;52.294;4.666;2023-02-28T00:57:57;36.25;33.99;38.90;;
66449;Laerm;56828;52.294;4.666;2023-02-28T00:58:07;37.60;33.72;47.51;;
66449;Laerm;56828;52.294;4.666;2023-02-28T00:58:18;34.94;33.10;36.75;;
66449;Laerm;56828;52.294;4.666;2023-02-28T00:58:28;34.70;32.92;36.99;;
66449;Laerm;56828;52.294;4.666;2023-02-28T00:58:39;35.36;32.83;38.83;;
66449;Laerm;56828;52.294;4.666;2023-02-28T00:58:49;38.24;33.26;44.37;;
66449;Laerm;56828;52.294;4.666;2023-02-28T00:59:00;36.81;33.42;41.64;;
66449;Laerm;56828;52.294;4.666;2023-02-28T00:59:10;37.98;34.39;41.40;;
66449;Laerm;56828;52.294;4.666;2023-02-28T00:59:21;41.68;38.41;45.95;;
66449;Laerm;56828;52.294;4.666;2023-02-28T00:59:31;39.12;35.80;43.32;;